sensor_id;sensor_type;location;lat;lon;timestamp;P1;durP1;ratioP1;P2;durP2;ratioP2
35506;SDS011;36461;52.018;21.036;2023-02-15T00:00:12;35.60;;;24.30;;
35506;SDS011;36461;52.018;21.036;2023-02-15T00:03:00;34.20;;;24.30;;
35506;SDS011;36461;52.018;21.036;2023-02-15T00:05:29;34.90;;;23.80;;
35506;SDS011;36461;52.018;21.036;2023-02-15T00:07:58;39.50;;;24.90;;
35506;SDS011;36461;52.018;21.036;2023-02-15T00:10:26;34.50;;;23.40;;
35506;SDS011;36461;52.018;21.036;2023-02-15T00:12:54;35.00;;;23.70;;
35506;SDS011;36461;52.018;21.036;2023-02-15T00:15:21;35.90;;;24.30;;
35506;SDS011;36461;52.018;21.036;2023-02-15T00:17:49;34.20;;;23.50;;
35506;SDS011;36461;52.018;21.036;2023-02-15T00:20:17;35.00;;;24.10;;
35506;SDS011;36461;52.018;21.036;2023-02-15T00:22:46;40.30;;;25.60;;
35506;SDS011;36461;52.018;21.036;2023-02-15T00:25:14;36.40;;;23.70;;
35506;SDS011;36461;52.018;21.036;2023-02-15T00:27:42;39.50;;;25.10;;
35506;SDS011;36461;52.018;21.036;2023-02-15T00:30:11;34.70;;;25.20;;
35506;SDS011;36461;52.018;21.036;2023-02-15T00:32:39;38.70;;;24.20;;
35506;SDS011;36461;52.018;21.036;2023-02-15T00:35:07;33.40;;;22.60;;
35506;SDS011;36461;52.018;21.036;2023-02-15T00:37:36;34.70;;;23.10;;
35506;SDS011;36461;52.018;21.036;2023-02-15T00:40:04;39.90;;;25.90;;
35506;SDS011;36461;52.018;21.036;2023-02-15T00:42:33;38.70;;;26.30;;
35506;SDS011;36461;52.018;21.036;2023-02-15T00:45:00;38.30;;;25.30;;
35506;SDS011;36461;52.018;21.036;2023-02-15T00:47:28;37.80;;;24.30;;
35506;SDS011;36461;52.018;21.036;2023-02-15T00:49:56;38.40;;;25.40;;
35506;SDS011;36461;52.018;21.036;2023-02-15T00:52:24;37.50;;;24.90;;
35506;SDS011;36461;52.018;21.036;2023-02-15T00:54:52;35.80;;;25.30;;
35506;SDS011;36461;52.018;21.036;2023-02-15T00:57:20;37.30;;;24.40;;
35506;SDS011;36461;52.018;21.036;2023-02-15T00:59:48;38.50;;;24.10;;
35506;SDS011;36461;52.018;21.036;2023-02-15T01:02:16;40.50;;;25.30;;
35506;SDS011;36461;52.018;21.036;2023-02-15T01:04:46;39.40;;;24.90;;
35506;SDS011;36461;52.018;21.036;2023-02-15T01:07:16;38.40;;;24.80;;
35506;SDS011;36461;52.018;21.036;2023-02-15T01:09:44;40.10;;;25.60;;
35506;SDS011;36461;52.018;21.036;2023-02-15T01:12:11;32.60;;;22.60;;
35506;SDS011;36461;52.018;21.036;2023-02-15T01:14:39;36.60;;;24.00;;
35506;SDS011;36461;52.018;21.036;2023-02-15T01:17:07;37.60;;;24.50;;
35506;SDS011;36461;52.018;21.036;2023-02-15T01:19:35;41.90;;;25.40;;
35506;SDS011;36461;52.018;21.036;2023-02-15T01:22:03;39.70;;;26.10;;
35506;SDS011;36461;52.018;21.036;2023-02-15T01:24:35;39.60;;;26.70;;
35506;SDS011;36461;52.018;21.036;2023-02-15T01:27:03;41.70;;;25.80;;
35506;SDS011;36461;52.018;21.036;2023-02-15T01:29:31;36.90;;;25.00;;
35506;SDS011;36461;52.018;21.036;2023-02-15T01:31:59;39.70;;;25.80;;
35506;SDS011;36461;52.018;21.036;2023-02-15T01:34:28;36.60;;;25.40;;
35506;SDS011;36461;52.018;21.036;2023-02-15T01:36:57;40.20;;;24.60;;
35506;SDS011;36461;52.018;21.036;2023-02-15T01:39:25;41.60;;;25.50;;
35506;SDS011;36461;52.018;21.036;2023-02-15T01:41:53;36.70;;;23.90;;
35506;SDS011;36461;52.018;21.036;2023-02-15T01:47:16;31.90;;;22.20;;
35506;SDS011;36461;52.018;21.036;2023-02-15T01:52:50;31.10;;;22.60;;
35506;SDS011;36461;52.018;21.036;2023-02-15T01:55:22;32.00;;;21.70;;
35506;SDS011;36461;52.018;21.036;2023-02-15T01:57:52;34.80;;;22.30;;
35506;SDS011;36461;52.018;21.036;2023-02-15T02:00:22;33.30;;;22.70;;
35506;SDS011;36461;52.018;21.036;2023-02-15T02:02:51;37.00;;;24.60;;
35506;SDS011;36461;52.018;21.036;2023-02-15T02:05:25;34.40;;;22.80;;
35506;SDS011;36461;52.018;21.036;2023-02-15T02:07:54;34.30;;;22.60;;
35506;SDS011;36461;52.018;21.036;2023-02-15T02:10:25;35.00;;;23.00;;
35506;SDS011;36461;52.018;21.036;2023-02-15T02:12:57;35.00;;;22.80;;
35506;SDS011;36461;52.018;21.036;2023-02-15T02:18:15;31.70;;;21.70;;
35506;SDS011;36461;52.018;21.036;2023-02-15T02:29:23;29.70;;;20.00;;
35506;SDS011;36461;52.018;21.036;2023-02-15T02:34:56;27.00;;;19.90;;
35506;SDS011;36461;52.018;21.036;2023-02-15T02:43:02;33.20;;;22.30;;
35506;SDS011;36461;52.018;21.036;2023-02-15T02:46:00;34.30;;;22.60;;
35506;SDS011;36461;52.018;21.036;2023-02-15T02:48:32;32.30;;;21.70;;
35506;SDS011;36461;52.018;21.036;2023-02-15T02:51:01;33.50;;;22.50;;
35506;SDS011;36461;52.018;21.036;2023-02-15T02:53:29;33.40;;;22.80;;
35506;SDS011;36461;52.018;21.036;2023-02-15T02:55:59;40.70;;;24.60;;
35506;SDS011;36461;52.018;21.036;2023-02-15T02:58:42;33.80;;;23.90;;
35506;SDS011;36461;52.018;21.036;2023-02-15T03:01:27;31.40;;;22.10;;
35506;SDS011;36461;52.018;21.036;2023-02-15T03:04:07;32.50;;;20.90;;
35506;SDS011;36461;52.018;21.036;2023-02-15T03:06:41;33.90;;;22.20;;
35506;SDS011;36461;52.018;21.036;2023-02-15T03:09:34;30.90;;;21.40;;
35506;SDS011;36461;52.018;21.036;2023-02-15T03:12:17;32.80;;;21.00;;
35506;SDS011;36461;52.018;21.036;2023-02-15T03:14:53;33.40;;;20.70;;
35506;SDS011;36461;52.018;21.036;2023-02-15T03:17:27;30.00;;;20.70;;
35506;SDS011;36461;52.018;21.036;2023-02-15T03:20:01;31.30;;;19.60;;
35506;SDS011;36461;52.018;21.036;2023-02-15T03:22:38;29.50;;;20.00;;
35506;SDS011;36461;52.018;21.036;2023-02-15T03:25:14;29.80;;;21.30;;
35506;SDS011;36461;52.018;21.036;2023-02-15T03:27:59;29.60;;;20.10;;
35506;SDS011;36461;52.018;21.036;2023-02-15T03:30:35;27.50;;;19.60;;
35506;SDS011;36461;52.018;21.036;2023-02-15T03:33:05;29.00;;;18.80;;
35506;SDS011;36461;52.018;21.036;2023-02-15T03:35:45;30.30;;;18.90;;
35506;SDS011;36461;52.018;21.036;2023-02-15T03:38:20;26.90;;;17.70;;
35506;SDS011;36461;52.018;21.036;2023-02-15T03:40:53;25.30;;;18.20;;
35506;SDS011;36461;52.018;21.036;2023-02-15T03:43:51;29.50;;;19.00;;
35506;SDS011;36461;52.018;21.036;2023-02-15T03:46:33;29.40;;;20.30;;
35506;SDS011;36461;52.018;21.036;2023-02-15T03:50:07;28.10;;;18.70;;
35506;SDS011;36461;52.018;21.036;2023-02-15T03:52:20;29.70;;;19.20;;
35506;SDS011;36461;52.018;21.036;2023-02-15T03:54:52;25.60;;;18.00;;
35506;SDS011;36461;52.018;21.036;2023-02-15T03:57:25;31.10;;;19.60;;
35506;SDS011;36461;52.018;21.036;2023-02-15T04:00:18;32.10;;;19.40;;
35506;SDS011;36461;52.018;21.036;2023-02-15T04:05:38;28.00;;;18.40;;
35506;SDS011;36461;52.018;21.036;2023-02-15T04:08:06;28.00;;;18.40;;
35506;SDS011;36461;52.018;21.036;2023-02-15T04:10:35;27.10;;;17.90;;
35506;SDS011;36461;52.018;21.036;2023-02-15T04:13:29;24.50;;;16.70;;
35506;SDS011;36461;52.018;21.036;2023-02-15T04:15:58;27.30;;;17.50;;
35506;SDS011;36461;52.018;21.036;2023-02-15T04:18:36;26.00;;;16.30;;
35506;SDS011;36461;52.018;21.036;2023-02-15T04:21:25;23.10;;;16.10;;
35506;SDS011;36461;52.018;21.036;2023-02-15T04:24:13;23.10;;;15.30;;
35506;SDS011;36461;52.018;21.036;2023-02-15T04:27:01;20.70;;;14.60;;
35506;SDS011;36461;52.018;21.036;2023-02-15T04:29:30;24.70;;;15.90;;
35506;SDS011;36461;52.018;21.036;2023-02-15T04:31:59;25.60;;;16.90;;
35506;SDS011;36461;52.018;21.036;2023-02-15T04:34:29;21.60;;;14.90;;
35506;SDS011;36461;52.018;21.036;2023-02-15T04:36:57;22.80;;;15.80;;
35506;SDS011;36461;52.018;21.036;2023-02-15T04:39:25;24.10;;;15.10;;
35506;SDS011;36461;52.018;21.036;2023-02-15T04:41:53;23.40;;;14.50;;
35506;SDS011;36461;52.018;21.036;2023-02-15T04:44:21;22.20;;;15.00;;
35506;SDS011;36461;52.018;21.036;2023-02-15T04:46:49;23.50;;;14.30;;
35506;SDS011;36461;52.018;21.036;2023-02-15T04:49:16;23.20;;;15.00;;
35506;SDS011;36461;52.018;21.036;2023-02-15T04:51:44;21.90;;;15.00;;
35506;SDS011;36461;52.018;21.036;2023-02-15T04:54:12;20.50;;;15.20;;
35506;SDS011;36461;52.018;21.036;2023-02-15T04:56:40;22.70;;;14.60;;
35506;SDS011;36461;52.018;21.036;2023-02-15T04:59:11;20.20;;;13.30;;
35506;SDS011;36461;52.018;21.036;2023-02-15T05:01:40;20.80;;;13.40;;
35506;SDS011;36461;52.018;21.036;2023-02-15T05:04:09;22.20;;;13.40;;
35506;SDS011;36461;52.018;21.036;2023-02-15T05:06:37;24.50;;;14.40;;
35506;SDS011;36461;52.018;21.036;2023-02-15T05:09:05;25.60;;;15.10;;
35506;SDS011;36461;52.018;21.036;2023-02-15T05:11:33;23.60;;;15.30;;
35506;SDS011;36461;52.018;21.036;2023-02-15T05:14:01;25.60;;;15.70;;
35506;SDS011;36461;52.018;21.036;2023-02-15T05:16:29;25.00;;;15.50;;
35506;SDS011;36461;52.018;21.036;2023-02-15T05:18:56;24.20;;;15.10;;
35506;SDS011;36461;52.018;21.036;2023-02-15T05:21:24;22.80;;;15.00;;
35506;SDS011;36461;52.018;21.036;2023-02-15T05:23:53;25.20;;;14.60;;
35506;SDS011;36461;52.018;21.036;2023-02-15T05:26:22;24.10;;;15.30;;
35506;SDS011;36461;52.018;21.036;2023-02-15T05:29:10;26.00;;;15.30;;
35506;SDS011;36461;52.018;21.036;2023-02-15T05:31:38;25.80;;;16.10;;
35506;SDS011;36461;52.018;21.036;2023-02-15T05:34:06;23.60;;;15.70;;
35506;SDS011;36461;52.018;21.036;2023-02-15T05:36:34;25.40;;;15.00;;
35506;SDS011;36461;52.018;21.036;2023-02-15T05:39:02;23.10;;;14.40;;
35506;SDS011;36461;52.018;21.036;2023-02-15T05:41:33;23.80;;;14.30;;
35506;SDS011;36461;52.018;21.036;2023-02-15T05:44:01;22.50;;;14.20;;
35506;SDS011;36461;52.018;21.036;2023-02-15T05:46:29;22.30;;;14.50;;
35506;SDS011;36461;52.018;21.036;2023-02-15T05:48:57;23.70;;;14.00;;
35506;SDS011;36461;52.018;21.036;2023-02-15T05:51:25;22.30;;;13.60;;
35506;SDS011;36461;52.018;21.036;2023-02-15T05:53:53;25.10;;;14.50;;
35506;SDS011;36461;52.018;21.036;2023-02-15T05:56:21;21.50;;;14.20;;
35506;SDS011;36461;52.018;21.036;2023-02-15T05:58:49;20.10;;;13.90;;
35506;SDS011;36461;52.018;21.036;2023-02-15T06:01:20;19.50;;;13.80;;
35506;SDS011;36461;52.018;21.036;2023-02-15T06:03:50;24.00;;;14.90;;
35506;SDS011;36461;52.018;21.036;2023-02-15T06:06:19;21.40;;;14.00;;
35506;SDS011;36461;52.018;21.036;2023-02-15T06:08:47;24.40;;;14.60;;
35506;SDS011;36461;52.018;21.036;2023-02-15T06:11:15;24.40;;;14.90;;
35506;SDS011;36461;52.018;21.036;2023-02-15T06:13:43;28.10;;;15.90;;
35506;SDS011;36461;52.018;21.036;2023-02-15T06:16:11;25.00;;;15.10;;
35506;SDS011;36461;52.018;21.036;2023-02-15T06:18:39;22.10;;;13.50;;
35506;SDS011;36461;52.018;21.036;2023-02-15T06:21:07;21.40;;;13.60;;
35506;SDS011;36461;52.018;21.036;2023-02-15T06:23:35;23.90;;;13.90;;
35506;SDS011;36461;52.018;21.036;2023-02-15T06:26:02;21.40;;;14.10;;
35506;SDS011;36461;52.018;21.036;2023-02-15T06:28:31;23.90;;;14.90;;
35506;SDS011;36461;52.018;21.036;2023-02-15T06:30:59;22.10;;;13.90;;
35506;SDS011;36461;52.018;21.036;2023-02-15T06:33:27;20.40;;;13.70;;
35506;SDS011;36461;52.018;21.036;2023-02-15T06:35:57;21.50;;;14.60;;
35506;SDS011;36461;52.018;21.036;2023-02-15T06:38:25;21.60;;;13.50;;
35506;SDS011;36461;52.018;21.036;2023-02-15T06:40:53;20.20;;;12.90;;
35506;SDS011;36461;52.018;21.036;2023-02-15T06:43:21;21.20;;;13.10;;
35506;SDS011;36461;52.018;21.036;2023-02-15T06:45:50;20.00;;;13.10;;
35506;SDS011;36461;52.018;21.036;2023-02-15T06:48:24;16.20;;;11.10;;
35506;SDS011;36461;52.018;21.036;2023-02-15T06:50:52;15.60;;;11.90;;
35506;SDS011;36461;52.018;21.036;2023-02-15T06:53:20;16.10;;;10.70;;
35506;SDS011;36461;52.018;21.036;2023-02-15T06:55:48;18.20;;;11.90;;
35506;SDS011;36461;52.018;21.036;2023-02-15T06:58:16;20.10;;;13.20;;
35506;SDS011;36461;52.018;21.036;2023-02-15T07:00:44;21.90;;;13.30;;
35506;SDS011;36461;52.018;21.036;2023-02-15T07:03:13;19.90;;;15.00;;
35506;SDS011;36461;52.018;21.036;2023-02-15T07:05:42;24.60;;;16.10;;
35506;SDS011;36461;52.018;21.036;2023-02-15T07:08:11;24.70;;;16.20;;
35506;SDS011;36461;52.018;21.036;2023-02-15T07:10:39;24.00;;;16.40;;
35506;SDS011;36461;52.018;21.036;2023-02-15T07:13:10;26.60;;;15.90;;
35506;SDS011;36461;52.018;21.036;2023-02-15T07:15:38;28.80;;;18.00;;
35506;SDS011;36461;52.018;21.036;2023-02-15T07:18:06;26.10;;;17.70;;
35506;SDS011;36461;52.018;21.036;2023-02-15T07:20:34;28.40;;;18.50;;
35506;SDS011;36461;52.018;21.036;2023-02-15T07:23:04;28.30;;;17.60;;
35506;SDS011;36461;52.018;21.036;2023-02-15T07:25:32;27.60;;;18.10;;
35506;SDS011;36461;52.018;21.036;2023-02-15T07:28:01;28.10;;;17.10;;
35506;SDS011;36461;52.018;21.036;2023-02-15T07:30:31;23.20;;;15.30;;
35506;SDS011;36461;52.018;21.036;2023-02-15T07:32:59;24.30;;;16.20;;
35506;SDS011;36461;52.018;21.036;2023-02-15T07:35:47;23.30;;;16.30;;
35506;SDS011;36461;52.018;21.036;2023-02-15T07:38:20;23.40;;;16.30;;
35506;SDS011;36461;52.018;21.036;2023-02-15T07:40:48;28.60;;;19.30;;
35506;SDS011;36461;52.018;21.036;2023-02-15T07:43:16;26.50;;;17.30;;
35506;SDS011;36461;52.018;21.036;2023-02-15T07:45:44;28.40;;;17.90;;
35506;SDS011;36461;52.018;21.036;2023-02-15T07:48:12;25.10;;;17.60;;
35506;SDS011;36461;52.018;21.036;2023-02-15T07:50:40;28.10;;;18.10;;
35506;SDS011;36461;52.018;21.036;2023-02-15T07:53:08;28.20;;;18.20;;
35506;SDS011;36461;52.018;21.036;2023-02-15T07:55:36;30.80;;;19.60;;
35506;SDS011;36461;52.018;21.036;2023-02-15T07:58:04;28.30;;;18.10;;
35506;SDS011;36461;52.018;21.036;2023-02-15T08:00:32;26.10;;;16.70;;
35506;SDS011;36461;52.018;21.036;2023-02-15T08:03:22;31.60;;;21.10;;
35506;SDS011;36461;52.018;21.036;2023-02-15T08:05:57;29.60;;;18.10;;
35506;SDS011;36461;52.018;21.036;2023-02-15T08:08:27;28.70;;;18.40;;
35506;SDS011;36461;52.018;21.036;2023-02-15T08:14:02;30.10;;;18.60;;
35506;SDS011;36461;52.018;21.036;2023-02-15T08:16:35;28.40;;;18.90;;
35506;SDS011;36461;52.018;21.036;2023-02-15T08:19:43;30.00;;;19.30;;
35506;SDS011;36461;52.018;21.036;2023-02-15T08:22:06;29.80;;;18.50;;
35506;SDS011;36461;52.018;21.036;2023-02-15T08:24:37;30.70;;;18.40;;
35506;SDS011;36461;52.018;21.036;2023-02-15T08:27:06;31.10;;;18.30;;
35506;SDS011;36461;52.018;21.036;2023-02-15T08:29:35;25.10;;;16.60;;
35506;SDS011;36461;52.018;21.036;2023-02-15T08:32:05;28.30;;;17.60;;
35506;SDS011;36461;52.018;21.036;2023-02-15T08:34:40;26.80;;;16.30;;
35506;SDS011;36461;52.018;21.036;2023-02-15T08:37:09;27.60;;;16.60;;
35506;SDS011;36461;52.018;21.036;2023-02-15T08:39:38;29.90;;;16.90;;
35506;SDS011;36461;52.018;21.036;2023-02-15T08:42:05;26.80;;;15.40;;
35506;SDS011;36461;52.018;21.036;2023-02-15T08:44:33;23.80;;;14.80;;
35506;SDS011;36461;52.018;21.036;2023-02-15T08:47:01;24.60;;;14.70;;
35506;SDS011;36461;52.018;21.036;2023-02-15T08:49:31;21.90;;;13.40;;
35506;SDS011;36461;52.018;21.036;2023-02-15T08:51:59;22.10;;;14.40;;
35506;SDS011;36461;52.018;21.036;2023-02-15T08:54:27;21.10;;;13.80;;
35506;SDS011;36461;52.018;21.036;2023-02-15T08:56:55;22.80;;;13.30;;
35506;SDS011;36461;52.018;21.036;2023-02-15T08:59:23;20.40;;;12.20;;
35506;SDS011;36461;52.018;21.036;2023-02-15T09:01:53;18.70;;;12.00;;
35506;SDS011;36461;52.018;21.036;2023-02-15T09:04:21;17.70;;;11.50;;
35506;SDS011;36461;52.018;21.036;2023-02-15T09:06:50;17.80;;;11.40;;
35506;SDS011;36461;52.018;21.036;2023-02-15T09:09:18;17.60;;;11.90;;
35506;SDS011;36461;52.018;21.036;2023-02-15T09:11:48;20.30;;;11.70;;
35506;SDS011;36461;52.018;21.036;2023-02-15T09:14:25;18.10;;;12.00;;
35506;SDS011;36461;52.018;21.036;2023-02-15T09:16:54;17.00;;;10.70;;
35506;SDS011;36461;52.018;21.036;2023-02-15T09:19:23;19.90;;;12.30;;
35506;SDS011;36461;52.018;21.036;2023-02-15T09:21:52;18.70;;;12.30;;
35506;SDS011;36461;52.018;21.036;2023-02-15T09:24:20;21.20;;;12.70;;
35506;SDS011;36461;52.018;21.036;2023-02-15T09:26:49;20.60;;;12.40;;
35506;SDS011;36461;52.018;21.036;2023-02-15T09:29:17;22.30;;;13.40;;
35506;SDS011;36461;52.018;21.036;2023-02-15T09:31:47;20.50;;;12.70;;
35506;SDS011;36461;52.018;21.036;2023-02-15T09:34:18;19.90;;;12.90;;
35506;SDS011;36461;52.018;21.036;2023-02-15T09:36:48;21.10;;;12.70;;
35506;SDS011;36461;52.018;21.036;2023-02-15T09:47:14;21.70;;;12.80;;
35506;SDS011;36461;52.018;21.036;2023-02-15T09:50:06;19.50;;;12.70;;
35506;SDS011;36461;52.018;21.036;2023-02-15T10:06:59;23.00;;;14.80;;
35506;SDS011;36461;52.018;21.036;2023-02-15T10:18:26;24.90;;;15.60;;
35506;SDS011;36461;52.018;21.036;2023-02-15T10:21:55;26.00;;;16.10;;
35506;SDS011;36461;52.018;21.036;2023-02-15T10:27:14;22.80;;;14.90;;
35506;SDS011;36461;52.018;21.036;2023-02-15T10:32:31;23.90;;;14.90;;
35506;SDS011;36461;52.018;21.036;2023-02-15T10:35:09;25.60;;;14.90;;
35506;SDS011;36461;52.018;21.036;2023-02-15T10:37:56;27.10;;;15.50;;
35506;SDS011;36461;52.018;21.036;2023-02-15T10:40:36;27.20;;;15.60;;
35506;SDS011;36461;52.018;21.036;2023-02-15T11:01:13;25.40;;;15.60;;
35506;SDS011;36461;52.018;21.036;2023-02-15T11:06:36;26.40;;;16.60;;
35506;SDS011;36461;52.018;21.036;2023-02-15T11:09:09;23.80;;;16.00;;
35506;SDS011;36461;52.018;21.036;2023-02-15T11:11:40;28.10;;;17.30;;
35506;SDS011;36461;52.018;21.036;2023-02-15T11:14:23;26.90;;;16.40;;
35506;SDS011;36461;52.018;21.036;2023-02-15T11:17:04;26.60;;;16.80;;
35506;SDS011;36461;52.018;21.036;2023-02-15T11:19:38;27.40;;;18.30;;
35506;SDS011;36461;52.018;21.036;2023-02-15T11:22:14;33.10;;;19.40;;
35506;SDS011;36461;52.018;21.036;2023-02-15T11:24:44;29.70;;;18.80;;
35506;SDS011;36461;52.018;21.036;2023-02-15T11:27:24;29.20;;;19.10;;
35506;SDS011;36461;52.018;21.036;2023-02-15T11:32:40;30.60;;;19.50;;
35506;SDS011;36461;52.018;21.036;2023-02-15T11:37:40;29.00;;;18.50;;
35506;SDS011;36461;52.018;21.036;2023-02-15T11:40:27;29.30;;;18.70;;
35506;SDS011;36461;52.018;21.036;2023-02-15T11:43:16;30.10;;;18.80;;
35506;SDS011;36461;52.018;21.036;2023-02-15T11:45:45;25.30;;;17.70;;
35506;SDS011;36461;52.018;21.036;2023-02-15T11:48:14;28.60;;;18.60;;
35506;SDS011;36461;52.018;21.036;2023-02-15T11:50:43;26.20;;;17.00;;
35506;SDS011;36461;52.018;21.036;2023-02-15T11:53:13;28.10;;;17.90;;
35506;SDS011;36461;52.018;21.036;2023-02-15T11:55:46;29.50;;;18.50;;
35506;SDS011;36461;52.018;21.036;2023-02-15T11:58:21;32.90;;;19.10;;
35506;SDS011;36461;52.018;21.036;2023-02-15T12:01:02;30.40;;;18.20;;
35506;SDS011;36461;52.018;21.036;2023-02-15T12:03:39;28.10;;;18.20;;
35506;SDS011;36461;52.018;21.036;2023-02-15T12:06:15;29.40;;;18.30;;
35506;SDS011;36461;52.018;21.036;2023-02-15T12:08:48;31.20;;;19.20;;
35506;SDS011;36461;52.018;21.036;2023-02-15T12:11:37;31.80;;;20.10;;
35506;SDS011;36461;52.018;21.036;2023-02-15T12:14:07;31.60;;;19.60;;
35506;SDS011;36461;52.018;21.036;2023-02-15T12:16:55;29.70;;;18.90;;
35506;SDS011;36461;52.018;21.036;2023-02-15T12:19:28;32.80;;;20.50;;
35506;SDS011;36461;52.018;21.036;2023-02-15T12:22:02;30.30;;;19.60;;
35506;SDS011;36461;52.018;21.036;2023-02-15T12:24:43;30.80;;;19.90;;
35506;SDS011;36461;52.018;21.036;2023-02-15T12:27:17;34.50;;;21.60;;
35506;SDS011;36461;52.018;21.036;2023-02-15T12:29:53;32.60;;;21.40;;
35506;SDS011;36461;52.018;21.036;2023-02-15T12:35:07;28.10;;;19.00;;
35506;SDS011;36461;52.018;21.036;2023-02-15T12:37:37;37.90;;;23.00;;
35506;SDS011;36461;52.018;21.036;2023-02-15T12:40:21;33.70;;;20.70;;
35506;SDS011;36461;52.018;21.036;2023-02-15T12:42:58;33.50;;;21.00;;
35506;SDS011;36461;52.018;21.036;2023-02-15T12:45:30;31.70;;;20.80;;
35506;SDS011;36461;52.018;21.036;2023-02-15T12:50:44;38.60;;;23.30;;
35506;SDS011;36461;52.018;21.036;2023-02-15T12:55:52;37.30;;;23.90;;
35506;SDS011;36461;52.018;21.036;2023-02-15T12:58:26;34.30;;;22.60;;
35506;SDS011;36461;52.018;21.036;2023-02-15T13:01:11;34.10;;;23.20;;
35506;SDS011;36461;52.018;21.036;2023-02-15T13:06:20;36.00;;;22.30;;
35506;SDS011;36461;52.018;21.036;2023-02-15T13:08:49;33.90;;;21.50;;
35506;SDS011;36461;52.018;21.036;2023-02-15T13:11:24;32.30;;;20.40;;
35506;SDS011;36461;52.018;21.036;2023-02-15T13:14:00;31.90;;;21.00;;
35506;SDS011;36461;52.018;21.036;2023-02-15T13:16:34;35.70;;;21.10;;
35506;SDS011;36461;52.018;21.036;2023-02-15T13:19:29;29.50;;;19.00;;
35506;SDS011;36461;52.018;21.036;2023-02-15T13:21:59;35.30;;;21.50;;
35506;SDS011;36461;52.018;21.036;2023-02-15T13:24:37;32.20;;;20.10;;
35506;SDS011;36461;52.018;21.036;2023-02-15T13:27:10;37.00;;;21.90;;
35506;SDS011;36461;52.018;21.036;2023-02-15T13:29:43;33.80;;;20.70;;
35506;SDS011;36461;52.018;21.036;2023-02-15T13:32:28;33.60;;;20.90;;
35506;SDS011;36461;52.018;21.036;2023-02-15T13:35:00;35.70;;;21.30;;
35506;SDS011;36461;52.018;21.036;2023-02-15T13:40:19;36.60;;;21.80;;
35506;SDS011;36461;52.018;21.036;2023-02-15T13:43:15;35.80;;;22.50;;
35506;SDS011;36461;52.018;21.036;2023-02-15T13:54:53;33.50;;;18.40;;
35506;SDS011;36461;52.018;21.036;2023-02-15T13:57:37;31.20;;;19.00;;
35506;SDS011;36461;52.018;21.036;2023-02-15T14:14:15;32.70;;;20.50;;
35506;SDS011;36461;52.018;21.036;2023-02-15T14:20:24;36.30;;;21.20;;
35506;SDS011;36461;52.018;21.036;2023-02-15T14:25:58;39.40;;;21.80;;
35506;SDS011;36461;52.018;21.036;2023-02-15T14:31:09;33.30;;;19.30;;
35506;SDS011;36461;52.018;21.036;2023-02-15T14:33:43;38.80;;;21.90;;
35506;SDS011;36461;52.018;21.036;2023-02-15T14:36:22;38.90;;;22.90;;
35506;SDS011;36461;52.018;21.036;2023-02-15T14:44:17;36.40;;;21.50;;
35506;SDS011;36461;52.018;21.036;2023-02-15T14:46:55;36.30;;;22.00;;
35506;SDS011;36461;52.018;21.036;2023-02-15T14:49:36;34.70;;;21.50;;
35506;SDS011;36461;52.018;21.036;2023-02-15T14:52:06;36.70;;;22.10;;
35506;SDS011;36461;52.018;21.036;2023-02-15T15:07:52;33.40;;;20.50;;
35506;SDS011;36461;52.018;21.036;2023-02-15T15:12:50;33.60;;;20.00;;
35506;SDS011;36461;52.018;21.036;2023-02-15T15:20:47;30.10;;;18.20;;
35506;SDS011;36461;52.018;21.036;2023-02-15T15:25:50;31.80;;;19.20;;
35506;SDS011;36461;52.018;21.036;2023-02-15T15:31:20;29.10;;;18.30;;
35506;SDS011;36461;52.018;21.036;2023-02-15T15:40:01;30.00;;;18.20;;
35506;SDS011;36461;52.018;21.036;2023-02-15T15:50:45;30.30;;;19.40;;
35506;SDS011;36461;52.018;21.036;2023-02-15T15:53:18;31.20;;;18.90;;
35506;SDS011;36461;52.018;21.036;2023-02-15T15:55:50;35.00;;;20.90;;
35506;SDS011;36461;52.018;21.036;2023-02-15T15:58:33;33.70;;;20.30;;
35506;SDS011;36461;52.018;21.036;2023-02-15T16:01:04;36.20;;;22.10;;
35506;SDS011;36461;52.018;21.036;2023-02-15T16:03:36;36.70;;;21.10;;
35506;SDS011;36461;52.018;21.036;2023-02-15T16:06:04;34.90;;;20.50;;
35506;SDS011;36461;52.018;21.036;2023-02-15T16:08:34;33.90;;;21.10;;
35506;SDS011;36461;52.018;21.036;2023-02-15T16:11:09;37.20;;;22.20;;
35506;SDS011;36461;52.018;21.036;2023-02-15T16:13:43;36.80;;;23.60;;
35506;SDS011;36461;52.018;21.036;2023-02-15T16:16:12;38.00;;;24.00;;
35506;SDS011;36461;52.018;21.036;2023-02-15T16:18:46;37.90;;;24.30;;
35506;SDS011;36461;52.018;21.036;2023-02-15T16:21:19;37.40;;;24.50;;
35506;SDS011;36461;52.018;21.036;2023-02-15T16:23:54;38.80;;;24.30;;
35506;SDS011;36461;52.018;21.036;2023-02-15T16:29:34;31.30;;;20.70;;
35506;SDS011;36461;52.018;21.036;2023-02-15T16:32:04;32.20;;;20.10;;
35506;SDS011;36461;52.018;21.036;2023-02-15T16:34:52;35.90;;;21.10;;
35506;SDS011;36461;52.018;21.036;2023-02-15T16:37:22;34.80;;;19.80;;
35506;SDS011;36461;52.018;21.036;2023-02-15T16:39:55;40.60;;;24.10;;
35506;SDS011;36461;52.018;21.036;2023-02-15T16:42:23;34.00;;;20.80;;
35506;SDS011;36461;52.018;21.036;2023-02-15T16:45:02;34.40;;;21.00;;
35506;SDS011;36461;52.018;21.036;2023-02-15T16:47:36;34.50;;;21.40;;
35506;SDS011;36461;52.018;21.036;2023-02-15T16:50:16;40.30;;;24.30;;
35506;SDS011;36461;52.018;21.036;2023-02-15T16:52:46;37.40;;;24.40;;
35506;SDS011;36461;52.018;21.036;2023-02-15T16:55:22;44.70;;;27.70;;
35506;SDS011;36461;52.018;21.036;2023-02-15T16:58:00;45.30;;;27.50;;
35506;SDS011;36461;52.018;21.036;2023-02-15T17:00:31;42.80;;;26.70;;
35506;SDS011;36461;52.018;21.036;2023-02-15T17:06:00;41.00;;;25.30;;
35506;SDS011;36461;52.018;21.036;2023-02-15T17:08:31;38.50;;;24.00;;
35506;SDS011;36461;52.018;21.036;2023-02-15T17:11:16;38.40;;;22.90;;
35506;SDS011;36461;52.018;21.036;2023-02-15T17:16:33;39.70;;;24.60;;
35506;SDS011;36461;52.018;21.036;2023-02-15T17:19:14;40.10;;;23.60;;
35506;SDS011;36461;52.018;21.036;2023-02-15T17:21:47;42.50;;;26.50;;
35506;SDS011;36461;52.018;21.036;2023-02-15T17:24:19;45.90;;;24.80;;
35506;SDS011;36461;52.018;21.036;2023-02-15T17:26:55;42.50;;;25.40;;
35506;SDS011;36461;52.018;21.036;2023-02-15T17:29:36;45.20;;;25.80;;
35506;SDS011;36461;52.018;21.036;2023-02-15T17:32:12;43.00;;;25.40;;
35506;SDS011;36461;52.018;21.036;2023-02-15T17:39:52;46.90;;;26.00;;
35506;SDS011;36461;52.018;21.036;2023-02-15T17:42:21;42.30;;;25.70;;
35506;SDS011;36461;52.018;21.036;2023-02-15T17:44:48;44.00;;;27.60;;
35506;SDS011;36461;52.018;21.036;2023-02-15T17:47:18;43.70;;;28.20;;
35506;SDS011;36461;52.018;21.036;2023-02-15T17:49:48;44.10;;;27.50;;
35506;SDS011;36461;52.018;21.036;2023-02-15T17:52:16;43.40;;;26.50;;
35506;SDS011;36461;52.018;21.036;2023-02-15T17:54:45;44.00;;;27.90;;
35506;SDS011;36461;52.018;21.036;2023-02-15T17:57:32;41.00;;;26.80;;
35506;SDS011;36461;52.018;21.036;2023-02-15T18:00:00;40.60;;;25.40;;